createdAt,value
2022-10-30T00:02:03.126Z,99263.06
2022-10-30T00:04:30.287Z,99266.63
2022-10-30T00:06:57.275Z,99260.47
2022-10-30T00:09:24.054Z,99249.75
2022-10-30T00:11:50.819Z,99248.91
2022-10-30T00:14:18.403Z,99241.16
2022-10-30T00:16:45.172Z,99244.72
2022-10-30T00:19:12.346Z,99243.84
2022-10-30T00:21:39.716Z,99245.72
2022-10-30T00:24:07.149Z,99258.53
2022-10-30T00:26:33.967Z,99261.09
2022-10-30T00:29:00.966Z,99249.41
2022-10-30T00:31:27.777Z,99248.56
2022-10-30T00:33:54.664Z,99252.38
2022-10-30T00:36:22.205Z,99253.50
2022-10-30T00:38:49.054Z,99243.38
2022-10-30T00:41:16.815Z,99257.06
2022-10-30T00:43:43.902Z,99261.50
2022-10-30T00:46:24.342Z,99263.44
2022-10-30T00:49:10.620Z,99254.47
2022-10-30T00:51:37.502Z,99248.19
2022-10-30T00:54:04.730Z,99243.03
2022-10-30T00:56:31.494Z,99245.00
2022-10-30T00:59:09.471Z,99238.88
2022-10-30T01:01:41.038Z,99235.28
2022-10-30T01:04:07.945Z,99241.56
2022-10-30T01:06:36.492Z,99242.69
2022-10-30T01:09:03.852Z,99239.72
2022-10-30T01:11:30.859Z,99245.38
2022-10-30T01:14:00.150Z,99249.94
2022-10-30T01:16:44.711Z,99243.06
2022-10-30T01:19:26.873Z,99247.63
2022-10-30T01:22:21.277Z,99248.59
2022-10-30T01:25:26.927Z,99246.75
2022-10-30T01:27:57.942Z,99244.19
2022-10-30T01:30:48.572Z,99238.88
2022-10-30T01:33:24.815Z,99234.31
2022-10-30T01:36:53.428Z,99245.28
2022-10-30T01:39:22.708Z,99247.25
2022-10-30T01:41:49.531Z,99247.25
2022-10-30T01:44:22.537Z,99250.94
2022-10-30T01:47:27.117Z,99253.78
2022-10-30T01:50:40.339Z,99250.34
2022-10-30T01:53:42.545Z,99247.88
2022-10-30T01:56:15.292Z,99244.19
2022-10-30T01:59:11.812Z,99246.03
2022-10-30T02:01:38.767Z,99245.16
2022-10-30T02:04:09.791Z,99244.44
2022-10-30T02:06:37.050Z,99244.69
2022-10-30T02:09:04.580Z,99242.84
2022-10-30T02:11:32.423Z,99240.16
2022-10-30T02:13:59.387Z,99242.09
2022-10-30T02:16:26.443Z,99244.78
2022-10-30T02:18:53.521Z,99247.63
2022-10-30T02:21:20.359Z,99240.50
2022-10-30T02:23:47.295Z,99246.91
2022-10-30T02:26:14.322Z,99239.66
2022-10-30T02:28:41.102Z,99244.19
2022-10-30T02:31:07.928Z,99246.03
2022-10-30T02:33:34.926Z,99233.47
2022-10-30T02:36:01.708Z,99229.06
2022-10-30T02:38:28.555Z,99234.59
2022-10-30T02:40:57.930Z,99230.16
2022-10-30T02:43:24.848Z,99227.47
2022-10-30T02:45:52.230Z,99220.47
2022-10-30T02:48:19.249Z,99218.84
2022-10-30T02:50:46.017Z,99224.38
2022-10-30T02:53:12.774Z,99215.19
2022-10-30T02:55:39.837Z,99210.00
2022-10-30T02:58:06.580Z,99207.31
2022-10-30T03:00:33.416Z,99212.84
2022-10-30T03:03:00.445Z,99218.97
2022-10-30T03:05:27.299Z,99218.97
2022-10-30T03:07:54.717Z,99219.97
2022-10-30T03:10:21.876Z,99224.38
2022-10-30T03:12:48.667Z,99232.63
2022-10-30T03:15:15.483Z,99234.50
2022-10-30T03:17:42.523Z,99237.44
2022-10-30T03:20:09.915Z,99236.59
2022-10-30T03:22:36.743Z,99241.88
2022-10-30T03:25:04.584Z,99241.00
2022-10-30T03:27:31.656Z,99250.00
2022-10-30T03:29:58.992Z,99250.97
2022-10-30T03:34:52.678Z,99261.91
2022-10-30T03:37:19.516Z,99270.03
2022-10-30T03:39:46.550Z,99260.22
2022-10-30T03:42:13.818Z,99255.78
2022-10-30T03:44:40.595Z,99261.06
2022-10-30T03:47:07.648Z,99253.19
2022-10-30T03:49:35.005Z,99247.78
2022-10-30T03:52:01.764Z,99248.75
2022-10-30T03:54:28.821Z,99248.75
2022-10-30T03:56:55.699Z,99249.75
2022-10-30T03:59:22.452Z,99251.84
2022-10-30T04:01:49.642Z,99246.44
2022-10-30T04:04:16.712Z,99247.41
2022-10-30T04:06:43.517Z,99247.28
2022-10-30T04:09:10.621Z,99241.13
2022-10-30T04:11:37.404Z,99239.41
2022-10-30T04:14:04.541Z,99228.69
2022-10-30T04:16:31.325Z,99227.00
2022-10-30T04:18:58.129Z,99226.34
2022-10-30T04:21:25.109Z,99222.69
2022-10-30T04:23:52.924Z,99227.00
2022-10-30T04:26:19.908Z,99229.94
2022-10-30T04:28:48.220Z,99231.66
2022-10-30T04:31:15.052Z,99239.88
2022-10-30T04:33:41.838Z,99236.34
2022-10-30T04:36:09.084Z,99233.50
2022-10-30T04:38:35.904Z,99234.63
2022-10-30T04:41:02.693Z,99229.06
2022-10-30T04:43:29.703Z,99227.38
2022-10-30T04:45:56.489Z,99213.94
2022-10-30T04:48:23.288Z,99217.63
2022-10-30T04:50:50.321Z,99221.34
2022-10-30T04:53:18.353Z,99228.44
2022-10-30T04:55:45.299Z,99233.97
2022-10-30T04:58:13.235Z,99237.69
2022-10-30T05:00:40.163Z,99233.00
2022-10-30T05:03:06.952Z,99242.97
2022-10-30T05:05:33.949Z,99242.09
2022-10-30T05:08:01.049Z,99242.22
2022-10-30T05:10:28.084Z,99238.53
2022-10-30T05:12:55.201Z,99234.38
2022-10-30T05:15:22.059Z,99229.81
2022-10-30T05:17:53.833Z,99222.53
2022-10-30T05:20:21.053Z,99226.38
2022-10-30T05:22:58.115Z,99228.06
2022-10-30T05:25:25.450Z,99241.72
2022-10-30T05:28:00.606Z,99237.19
2022-10-30T05:30:28.695Z,99227.34
2022-10-30T05:33:02.771Z,99228.34
2022-10-30T05:35:30.000Z,99227.69
2022-10-30T05:37:57.293Z,99234.72
2022-10-30T05:40:24.103Z,99238.28
2022-10-30T05:42:51.146Z,99238.28
2022-10-30T05:45:18.055Z,99239.91
2022-10-30T05:47:45.099Z,99239.16
2022-10-30T05:50:12.564Z,99240.88
2022-10-30T05:52:39.601Z,99236.47
2022-10-30T05:55:06.784Z,99249.00
2022-10-30T05:57:33.685Z,99241.72
2022-10-30T06:00:00.739Z,99254.28
2022-10-30T06:02:27.610Z,99257.09
2022-10-30T06:04:54.725Z,99258.84
2022-10-30T06:07:21.530Z,99249.72
2022-10-30T06:09:48.359Z,99247.91
2022-10-30T06:12:15.451Z,99251.56
2022-10-30T06:14:42.806Z,99254.16
2022-10-30T06:17:09.834Z,99249.59
2022-10-30T06:19:36.606Z,99251.22
2022-10-30T06:22:03.390Z,99247.78
2022-10-30T06:24:30.450Z,99261.16
2022-10-30T06:26:57.918Z,99261.94
2022-10-30T06:29:24.778Z,99259.09
2022-10-30T06:31:51.830Z,99255.50
2022-10-30T06:34:18.614Z,99253.69
2022-10-30T06:36:45.464Z,99253.56
2022-10-30T06:39:12.538Z,99255.28
2022-10-30T06:41:39.384Z,99257.13
2022-10-30T06:44:06.195Z,99255.16
2022-10-30T06:46:33.868Z,99253.19
2022-10-30T06:49:00.957Z,99253.19
2022-10-30T06:51:27.708Z,99252.94
2022-10-30T06:53:54.778Z,99254.06
2022-10-30T06:56:21.601Z,99251.25
2022-10-30T06:58:48.618Z,99253.78
2022-10-30T07:01:15.606Z,99265.38
2022-10-30T07:03:42.466Z,99267.84
2022-10-30T07:06:09.847Z,99259.56
2022-10-30T07:08:36.755Z,99262.16
2022-10-30T07:11:03.579Z,99259.72
2022-10-30T07:13:30.582Z,99259.19
2022-10-30T07:15:59.038Z,99257.88
2022-10-30T07:18:25.873Z,99262.16
2022-10-30T07:20:56.512Z,99270.03
2022-10-30T07:23:23.451Z,99261.06
2022-10-30T07:25:50.469Z,99260.81
2022-10-30T07:28:17.260Z,99266.13
2022-10-30T07:30:44.042Z,99258.59
2022-10-30T07:33:11.114Z,99264.03
2022-10-30T07:35:37.929Z,99262.16
2022-10-30T07:38:10.863Z,99259.22
2022-10-30T07:40:37.864Z,99260.06
2022-10-30T07:43:04.886Z,99257.59
2022-10-30T07:45:31.869Z,99248.16
2022-10-30T07:47:59.106Z,99256.28
2022-10-30T07:50:26.139Z,99252.44
2022-10-30T07:52:53.000Z,99260.69
2022-10-30T07:55:20.079Z,99255.91
2022-10-30T07:57:47.133Z,99250.97
2022-10-30T08:00:14.551Z,99257.13
2022-10-30T08:02:41.770Z,99259.09
2022-10-30T08:05:09.005Z,99256.00
2022-10-30T08:07:37.082Z,99251.34
2022-10-30T08:10:05.094Z,99242.09
2022-10-30T08:12:32.843Z,99241.84
2022-10-30T08:15:00.039Z,99239.00
2022-10-30T08:17:26.871Z,99240.59
2022-10-30T08:19:53.899Z,99238.50
2022-10-30T08:22:20.687Z,99245.50
2022-10-30T08:24:47.818Z,99237.25
2022-10-30T08:27:14.644Z,99241.41
2022-10-30T08:29:42.043Z,99242.91
2022-10-30T08:32:08.809Z,99240.06
2022-10-30T08:34:35.923Z,99237.00
2022-10-30T08:37:02.779Z,99242.28
2022-10-30T08:39:29.653Z,99242.28
2022-10-30T08:42:00.157Z,99246.31
2022-10-30T08:44:27.043Z,99245.34
2022-10-30T08:46:54.241Z,99236.06
2022-10-30T08:49:21.030Z,99254.44
2022-10-30T08:51:48.111Z,99252.59
2022-10-30T08:54:14.928Z,99248.63
2022-10-30T08:56:42.152Z,99254.50
2022-10-30T08:59:08.952Z,99247.28
2022-10-30T09:01:36.923Z,99238.88
2022-10-30T09:04:03.954Z,99244.19
2022-10-30T09:06:31.758Z,99251.91
2022-10-30T09:08:58.855Z,99253.13
2022-10-30T09:11:25.687Z,99249.28
2022-10-30T09:13:52.576Z,99257.88
2022-10-30T09:16:19.583Z,99253.03
2022-10-30T09:18:46.397Z,99253.50
2022-10-30T09:21:13.755Z,99249.56
2022-10-30T09:23:42.979Z,99249.91
2022-10-30T09:26:10.658Z,99254.06
2022-10-30T09:28:37.626Z,99257.50
2022-10-30T09:31:04.692Z,99251.66
2022-10-30T09:33:31.495Z,99244.88
2022-10-30T09:35:58.328Z,99252.47
2022-10-30T09:38:25.434Z,99250.31
2022-10-30T09:41:13.957Z,99247.22
2022-10-30T09:43:43.988Z,99243.41
2022-10-30T09:46:29.152Z,99235.00
2022-10-30T09:49:17.566Z,99249.16
2022-10-30T09:51:59.653Z,99245.28
2022-10-30T09:54:37.054Z,99231.31
2022-10-30T09:57:45.634Z,99238.06
2022-10-30T10:00:18.529Z,99229.13
2022-10-30T10:03:14.195Z,99233.16
2022-10-30T10:05:44.792Z,99232.47
2022-10-30T10:08:17.392Z,99230.06
2022-10-30T10:10:45.796Z,99231.50
2022-10-30T10:13:38.505Z,99224.53
2022-10-30T10:16:22.631Z,99231.25
2022-10-30T10:19:15.807Z,99230.59
2022-10-30T10:21:51.249Z,99225.88
2022-10-30T10:24:21.730Z,99216.16
2022-10-30T10:26:52.511Z,99213.16
2022-10-30T10:29:37.914Z,99218.06
2022-10-30T10:32:08.822Z,99221.03
2022-10-30T10:34:47.585Z,99218.59
2022-10-30T10:37:14.567Z,99213.44
2022-10-30T10:40:15.866Z,99207.63
2022-10-30T10:43:07.170Z,99206.06
2022-10-30T10:45:44.007Z,99190.75
2022-10-30T10:48:21.264Z,99188.72
2022-10-30T10:51:00.704Z,99183.44
2022-10-30T10:53:55.210Z,99186.56
2022-10-30T10:56:24.629Z,99184.25
2022-10-30T10:58:56.996Z,99193.84
2022-10-30T11:01:31.731Z,99196.13
2022-10-30T11:04:28.285Z,99196.41
2022-10-30T11:06:55.143Z,99201.25
2022-10-30T11:09:23.545Z,99201.81
2022-10-30T11:11:52.443Z,99194.06
2022-10-30T11:14:27.118Z,99191.75
2022-10-30T11:17:20.628Z,99187.44
2022-10-30T11:19:52.636Z,99188.00
2022-10-30T11:22:27.218Z,99180.09
2022-10-30T11:24:54.279Z,99185.09
2022-10-30T11:27:24.087Z,99188.38
2022-10-30T11:29:54.023Z,99180.47
2022-10-30T11:32:26.462Z,99179.19
2022-10-30T11:35:03.749Z,99169.53
2022-10-30T11:37:32.475Z,99173.53
2022-10-30T11:40:05.342Z,99170.50
2022-10-30T11:42:32.484Z,99177.34
2022-10-30T11:44:59.366Z,99174.19
2022-10-30T11:47:36.382Z,99169.97
2022-10-30T11:50:06.876Z,99166.81
2022-10-30T11:52:39.225Z,99169.06
2022-10-30T11:55:23.528Z,99175.91
2022-10-30T11:57:52.282Z,99172.75
2022-10-30T12:00:20.136Z,99166.84
2022-10-30T12:02:48.786Z,99167.53
2022-10-30T12:05:33.964Z,99167.91
2022-10-30T12:08:06.638Z,99161.13
2022-10-30T12:10:45.924Z,99158.94
2022-10-30T12:13:17.020Z,99152.19
2022-10-30T12:15:44.322Z,99157.31
2022-10-30T12:18:22.605Z,99146.09
2022-10-30T12:20:52.613Z,99143.06
2022-10-30T12:23:21.157Z,99137.16
2022-10-30T12:25:48.550Z,99142.31
2022-10-30T12:28:20.674Z,99147.13
2022-10-30T12:31:03.996Z,99138.78
2022-10-30T12:33:37.891Z,99133.88
2022-10-30T12:36:12.215Z,99132.69
2022-10-30T12:38:58.636Z,99134.94
2022-10-30T12:41:31.533Z,99142.13
2022-10-30T12:44:08.762Z,99137.19
2022-10-30T12:46:47.124Z,99143.03
2022-10-30T12:49:32.711Z,99146.31
2022-10-30T12:52:13.499Z,99152.44
2022-10-30T12:55:05.343Z,99139.53
2022-10-30T12:57:35.818Z,99141.91
2022-10-30T13:00:03.587Z,99135.28
2022-10-30T13:02:58.189Z,99126.94
2022-10-30T13:05:40.085Z,99131.19
2022-10-30T13:08:19.822Z,99132.78
2022-10-30T13:10:49.652Z,99130.72
2022-10-30T13:13:29.494Z,99125.97
2022-10-30T13:15:57.630Z,99127.69
2022-10-30T13:21:11.936Z,99116.13
2022-10-30T13:23:48.055Z,99121.22
2022-10-30T13:26:41.064Z,99117.50
2022-10-30T13:29:16.611Z,99116.66
2022-10-30T13:31:58.711Z,99121.94
2022-10-30T13:35:02.597Z,99117.03
2022-10-30T13:37:32.225Z,99118.56
2022-10-30T13:40:20.391Z,99115.81
2022-10-30T13:42:51.367Z,99115.66
2022-10-30T13:45:44.101Z,99106.47
2022-10-30T13:48:22.130Z,99112.78
2022-10-30T13:51:10.970Z,99129.84
2022-10-30T13:53:38.781Z,99124.38
2022-10-30T13:56:05.839Z,99111.75
2022-10-30T13:58:36.882Z,99105.13
2022-10-30T14:01:32.401Z,99101.53
2022-10-30T14:04:05.486Z,99101.53
2022-10-30T14:06:59.978Z,99100.53
2022-10-30T14:09:30.276Z,99099.50
2022-10-30T14:12:20.709Z,99102.25
2022-10-30T14:14:47.834Z,99088.59
2022-10-30T14:17:16.206Z,99088.59
2022-10-30T14:20:21.499Z,99090.47
2022-10-30T14:23:06.581Z,99105.84
2022-10-30T14:25:33.363Z,99104.13
2022-10-30T14:28:00.882Z,99104.13
2022-10-30T14:30:28.661Z,99101.41
2022-10-30T14:32:55.490Z,99095.22
2022-10-30T14:35:33.835Z,99098.09
2022-10-30T14:38:06.719Z,99110.91
2022-10-30T14:41:02.808Z,99105.47
2022-10-30T14:43:34.614Z,99116.53
2022-10-30T14:46:02.260Z,99109.34
2022-10-30T14:48:42.298Z,99114.97
2022-10-30T14:51:22.921Z,99122.47
2022-10-30T14:54:17.162Z,99110.00
2022-10-30T14:56:49.301Z,99120.22
2022-10-30T14:59:16.094Z,99118.69
2022-10-30T15:01:50.168Z,99117.97
2022-10-30T15:04:35.313Z,99115.56
2022-10-30T15:07:07.973Z,99119.50
2022-10-30T15:09:50.118Z,99108.88
2022-10-30T15:12:26.693Z,99113.66
2022-10-30T15:15:01.875Z,99103.91
2022-10-30T15:17:32.959Z,99102.38
2022-10-30T15:20:01.281Z,99096.38
2022-10-30T15:22:28.607Z,99096.53
2022-10-30T15:24:55.753Z,99104.19
2022-10-30T15:27:23.209Z,99100.06
2022-10-30T15:29:55.482Z,99098.53
2022-10-30T15:32:24.114Z,99092.50
2022-10-30T15:35:02.951Z,99090.97
2022-10-30T15:37:30.169Z,99085.00
2022-10-30T15:40:18.092Z,99088.88
2022-10-30T15:42:45.353Z,99088.19
2022-10-30T15:45:17.781Z,99093.97
2022-10-30T15:47:46.517Z,99093.44
2022-10-30T15:50:13.556Z,99091.69
2022-10-30T15:52:40.348Z,99090.16
2022-10-30T15:55:09.262Z,99098.81
2022-10-30T15:58:02.441Z,99095.56
2022-10-30T16:00:37.589Z,99088.72
2022-10-30T16:03:04.420Z,99101.59
2022-10-30T16:05:31.612Z,99096.63
2022-10-30T16:07:59.660Z,99095.06
2022-10-30T16:10:27.823Z,99087.34
2022-10-30T16:12:57.062Z,99092.28
2022-10-30T16:15:29.719Z,99092.56
2022-10-30T16:18:06.334Z,99083.00
2022-10-30T16:20:34.737Z,99085.19
2022-10-30T16:23:01.708Z,99083.63
2022-10-30T16:25:28.779Z,99080.22
2022-10-30T16:27:55.531Z,99074.38
2022-10-30T16:30:23.863Z,99080.13
2022-10-30T16:32:52.534Z,99073.44
2022-10-30T16:35:19.916Z,99080.19
2022-10-30T16:37:46.716Z,99082.22
2022-10-30T16:40:16.667Z,99092.75
2022-10-30T16:43:03.406Z,99087.59
2022-10-30T16:45:34.016Z,99083.63
2022-10-30T16:48:08.403Z,99088.34
2022-10-30T16:50:37.460Z,99083.53
2022-10-30T16:53:22.423Z,99081.81
2022-10-30T16:55:49.247Z,99084.16
2022-10-30T16:58:16.340Z,99085.31
2022-10-30T17:00:49.634Z,99077.59
2022-10-30T17:03:16.720Z,99081.47
2022-10-30T17:05:43.722Z,99081.88
2022-10-30T17:08:16.808Z,99080.34
2022-10-30T17:10:58.697Z,99086.25
2022-10-30T17:13:36.110Z,99083.66
2022-10-30T17:16:25.481Z,99077.81
2022-10-30T17:18:53.906Z,99081.72
2022-10-30T17:21:22.731Z,99081.16
2022-10-30T17:23:54.126Z,99077.72
2022-10-30T17:26:21.218Z,99077.88
2022-10-30T17:28:48.293Z,99077.16
2022-10-30T17:31:18.115Z,99072.16
2022-10-30T17:33:48.557Z,99075.91
2022-10-30T17:36:15.310Z,99083.53
2022-10-30T17:38:42.094Z,99084.38
2022-10-30T17:41:12.460Z,99084.97
2022-10-30T17:43:53.273Z,99074.22
2022-10-30T17:46:20.832Z,99080.00
2022-10-30T17:48:47.929Z,99085.72
2022-10-30T17:51:15.276Z,99085.88
2022-10-30T17:53:42.233Z,99085.31
2022-10-30T17:56:31.750Z,99085.47
2022-10-30T17:58:58.560Z,99086.59
2022-10-30T18:01:26.422Z,99085.19
2022-10-30T18:03:57.206Z,99086.34
2022-10-30T18:06:29.845Z,99090.09
2022-10-30T18:08:56.648Z,99083.06
2022-10-30T18:11:24.145Z,99088.78
2022-10-30T18:13:51.647Z,99091.81
2022-10-30T18:16:18.865Z,99095.53
2022-10-30T18:18:45.896Z,99093.13
2022-10-30T18:21:18.502Z,99094.09
2022-10-30T18:23:53.842Z,99102.56
2022-10-30T18:26:21.713Z,99096.41
2022-10-30T18:28:48.839Z,99095.84
2022-10-30T18:31:17.556Z,99098.84
2022-10-30T18:33:44.684Z,99102.47
2022-10-30T18:36:15.282Z,99097.41
2022-10-30T18:38:42.201Z,99097.69
2022-10-30T18:41:35.584Z,99095.97
2022-10-30T18:44:02.804Z,99101.69
2022-10-30T18:46:30.541Z,99096.56
2022-10-30T18:48:57.590Z,99098.41
2022-10-30T18:51:28.378Z,99095.00
2022-10-30T18:53:56.912Z,99094.13
2022-10-30T18:56:26.656Z,99104.44
2022-10-30T18:58:56.699Z,99107.16
2022-10-30T19:01:28.704Z,99098.44
2022-10-30T19:03:55.681Z,99104.16
2022-10-30T19:06:23.435Z,99103.44
2022-10-30T19:08:50.632Z,99098.16
2022-10-30T19:11:24.063Z,99103.00
2022-10-30T19:13:52.383Z,99096.00
2022-10-30T19:16:19.685Z,99099.72
2022-10-30T19:18:46.936Z,99099.00
2022-10-30T19:21:18.199Z,99096.56
2022-10-30T19:23:45.249Z,99095.72
2022-10-30T19:26:14.555Z,99102.16
2022-10-30T19:28:42.052Z,99100.72
2022-10-30T19:31:12.897Z,99101.00
2022-10-30T19:33:39.920Z,99101.16
2022-10-30T19:36:06.949Z,99099.56
2022-10-30T19:38:34.035Z,99099.75
2022-10-30T19:41:00.927Z,99098.16
2022-10-30T19:43:27.979Z,99101.84
2022-10-30T19:45:56.848Z,99104.88
2022-10-30T19:48:40.929Z,99102.44
2022-10-30T19:51:11.590Z,99104.28
2022-10-30T19:53:39.350Z,99100.13
2022-10-30T19:56:06.743Z,99103.13
2022-10-30T19:58:33.676Z,99097.13
2022-10-30T20:01:00.731Z,99105.28
2022-10-30T20:03:27.556Z,99104.56
2022-10-30T20:05:55.718Z,99099.41
2022-10-30T20:08:24.161Z,99101.56
2022-10-30T20:10:51.150Z,99107.97
2022-10-30T20:13:18.066Z,99103.69
2022-10-30T20:15:45.136Z,99108.25
2022-10-30T20:18:16.683Z,99107.66
2022-10-30T20:20:47.587Z,99115.09
2022-10-30T20:23:14.856Z,99116.13
2022-10-30T20:25:41.666Z,99117.88
2022-10-30T20:28:24.131Z,99123.88
2022-10-30T20:30:51.608Z,99122.56
2022-10-30T20:33:19.481Z,99116.81
2022-10-30T20:35:47.195Z,99114.69
2022-10-30T20:38:33.410Z,99119.38
2022-10-30T20:41:02.270Z,99120.66
2022-10-30T20:43:33.230Z,99123.66
2022-10-30T20:46:00.393Z,99131.94
2022-10-30T20:48:27.714Z,99130.34
2022-10-30T20:50:55.309Z,99122.88
2022-10-30T20:53:22.346Z,99120.03
2022-10-30T20:55:49.209Z,99127.31
2022-10-30T20:58:15.985Z,99125.84
2022-10-30T21:00:43.168Z,99123.28
2022-10-30T21:03:10.373Z,99120.88
2022-10-30T21:05:45.708Z,99127.28
2022-10-30T21:08:13.816Z,99127.56
2022-10-30T21:10:41.036Z,99135.97
2022-10-30T21:13:09.746Z,99135.25
2022-10-30T21:15:44.474Z,99133.66
2022-10-30T21:18:12.678Z,99131.94
2022-10-30T21:20:41.023Z,99128.38
2022-10-30T21:23:07.999Z,99130.34
2022-10-30T21:25:35.799Z,99127.06
2022-10-30T21:28:02.835Z,99127.94
2022-10-30T21:30:29.627Z,99120.19
2022-10-30T21:32:56.958Z,99124.16
2022-10-30T21:35:23.940Z,99128.75
2022-10-30T21:37:50.726Z,99125.19
2022-10-30T21:40:17.755Z,99123.31
2022-10-30T21:42:47.713Z,99127.31
2022-10-30T21:45:14.503Z,99130.88
2022-10-30T21:47:41.481Z,99125.00
2022-10-30T21:50:12.222Z,99116.97
2022-10-30T21:52:40.504Z,99125.38
2022-10-30T21:55:07.880Z,99121.81
2022-10-30T21:57:34.863Z,99125.38
2022-10-30T22:00:05.964Z,99123.78
2022-10-30T22:02:34.294Z,99114.81
2022-10-30T22:05:01.344Z,99118.78
2022-10-30T22:07:28.201Z,99119.91
2022-10-30T22:09:55.014Z,99117.19
2022-10-30T22:12:22.055Z,99117.47
2022-10-30T22:14:48.810Z,99114.75
2022-10-30T22:17:15.653Z,99118.00
2022-10-30T22:19:42.675Z,99124.41
2022-10-30T22:22:11.107Z,99121.72
2022-10-30T22:24:37.904Z,99114.28
2022-10-30T22:27:04.896Z,99116.28
2022-10-30T22:29:31.657Z,99113.13
2022-10-30T22:31:58.407Z,99121.50
2022-10-30T22:34:25.445Z,99106.84
2022-10-30T22:36:52.211Z,99112.78
2022-10-30T22:39:18.977Z,99113.38
2022-10-30T22:41:45.957Z,99112.66
2022-10-30T22:44:13.838Z,99122.66
2022-10-30T22:46:40.838Z,99117.22
2022-10-30T22:49:07.975Z,99112.91
2022-10-30T22:51:36.159Z,99117.63
2022-10-30T22:54:04.041Z,99115.75
2022-10-30T22:56:32.349Z,99110.59
2022-10-30T22:59:03.644Z,99112.47
2022-10-30T23:01:31.580Z,99114.31
2022-10-30T23:03:59.836Z,99109.75
2022-10-30T23:06:27.306Z,99115.31
2022-10-30T23:08:56.008Z,99114.56
2022-10-30T23:11:23.119Z,99112.84
2022-10-30T23:13:50.158Z,99111.16
2022-10-30T23:16:18.805Z,99126.53
2022-10-30T23:18:46.005Z,99118.69
2022-10-30T23:21:17.492Z,99114.38
2022-10-30T23:23:44.911Z,99115.31
2022-10-30T23:26:14.028Z,99121.66
2022-10-30T23:28:41.255Z,99122.59
2022-10-30T23:31:21.090Z,99126.44
2022-10-30T23:33:48.685Z,99114.72
2022-10-30T23:36:15.665Z,99115.88
2022-10-30T23:38:42.738Z,99123.00
2022-10-30T23:41:09.606Z,99120.41
2022-10-30T23:43:36.724Z,99116.97
2022-10-30T23:46:03.494Z,99119.69
2022-10-30T23:48:30.506Z,99128.81
2022-10-30T23:50:57.283Z,99123.53
2022-10-30T23:53:24.577Z,99123.78
2022-10-30T23:55:54.669Z,99122.78
2022-10-30T23:58:21.789Z,99121.22
